Accueil
METAR-TAF:

METAR-TAF

Aéroports :

Bad Vöslau, Autriche

latitude: 47-57-52N, longitude: 016-15-34E, altitude: 233 m

Observation

Le bulletin a été fait il y a 6 heures et 58 minutes, à 18:00 UTC
Vent 4 kt de sud/sud-ouest
Température 27°C
Humidité 48%
Pression

METAR: LOAV 091800Z 20004KT 40KM SCT120AC 27/15

Heure: 02:58 (00:58 UTC)

Prévision

Le bulletin a été fait il y a 13 heures et 33 minutes, à 11:25 UTC
Prévision valable du 09 à 12 UTC au 09 à 21 UTC
Vent 8 kt de sud/sud-est
Visibilité 10 km ou plus
Quelques nuages à une hauteur de 5000 ft

TAF: LOAV 091125Z 0912/0921 15008KT 9999 FEW050

Observations et prévisions météorologiques de plus de 4000 aéroports (messages METAR et TAF).

Les stations disponibles sont représentées par des disques jaunes et rouges sur la carte.

Passer la souris dessus pour voir le nom de la station.

Cliquer dessus pour voir les observations et prévisions météorologiques.

Pour changer de carte: cliquez sur les boutons verts avec une croix noire pour zoomer, sur le bouton vert avec un tiret pour effectuer un zoom arrière, ou sur les flèches vertes pour les cartes adjacentes.


METAR-TAF: